sensor_id;sensor_type;location;lat;lon;timestamp;P1;durP1;ratioP1;P2;durP2;ratioP2
61806;SDS011;47726;52.766;6.606;2022-07-31T00:01:45;9.13;;;3.60;;
61806;SDS011;47726;52.766;6.606;2022-07-31T00:04:11;6.45;;;3.20;;
61806;SDS011;47726;52.766;6.606;2022-07-31T00:06:36;6.18;;;3.25;;
61806;SDS011;47726;52.766;6.606;2022-07-31T00:09:03;6.10;;;3.50;;
61806;SDS011;47726;52.766;6.606;2022-07-31T00:11:28;7.15;;;3.30;;
61806;SDS011;47726;52.766;6.606;2022-07-31T00:13:54;6.20;;;3.33;;
61806;SDS011;47726;52.766;6.606;2022-07-31T00:16:20;6.85;;;4.03;;
61806;SDS011;47726;52.766;6.606;2022-07-31T00:18:45;4.28;;;3.40;;
61806;SDS011;47726;52.766;6.606;2022-07-31T00:21:11;5.30;;;3.60;;
61806;SDS011;47726;52.766;6.606;2022-07-31T00:23:38;5.25;;;3.53;;
61806;SDS011;47726;52.766;6.606;2022-07-31T00:26:05;6.07;;;3.60;;
61806;SDS011;47726;52.766;6.606;2022-07-31T00:28:31;4.53;;;3.42;;
61806;SDS011;47726;52.766;6.606;2022-07-31T00:30:57;5.70;;;3.63;;
61806;SDS011;47726;52.766;6.606;2022-07-31T00:33:23;5.97;;;3.40;;
61806;SDS011;47726;52.766;6.606;2022-07-31T00:35:48;5.70;;;3.22;;
61806;SDS011;47726;52.766;6.606;2022-07-31T00:38:14;5.38;;;3.80;;
61806;SDS011;47726;52.766;6.606;2022-07-31T00:40:46;5.75;;;3.85;;
61806;SDS011;47726;52.766;6.606;2022-07-31T00:43:13;4.75;;;3.67;;
61806;SDS011;47726;52.766;6.606;2022-07-31T00:45:39;6.78;;;4.20;;
61806;SDS011;47726;52.766;6.606;2022-07-31T00:48:05;6.75;;;3.53;;
61806;SDS011;47726;52.766;6.606;2022-07-31T00:50:31;7.40;;;3.63;;
61806;SDS011;47726;52.766;6.606;2022-07-31T00:52:57;5.85;;;3.60;;
61806;SDS011;47726;52.766;6.606;2022-07-31T00:55:22;6.28;;;3.80;;
61806;SDS011;47726;52.766;6.606;2022-07-31T00:57:48;8.85;;;3.70;;
61806;SDS011;47726;52.766;6.606;2022-07-31T01:00:14;6.75;;;3.90;;
61806;SDS011;47726;52.766;6.606;2022-07-31T01:02:40;6.60;;;3.95;;
61806;SDS011;47726;52.766;6.606;2022-07-31T01:05:05;4.53;;;3.60;;
61806;SDS011;47726;52.766;6.606;2022-07-31T01:07:31;6.40;;;3.88;;
61806;SDS011;47726;52.766;6.606;2022-07-31T01:09:57;7.07;;;3.90;;
61806;SDS011;47726;52.766;6.606;2022-07-31T01:12:25;9.10;;;4.25;;
61806;SDS011;47726;52.766;6.606;2022-07-31T01:14:56;5.53;;;4.20;;
61806;SDS011;47726;52.766;6.606;2022-07-31T01:17:25;5.70;;;4.22;;
61806;SDS011;47726;52.766;6.606;2022-07-31T01:19:52;5.30;;;4.13;;
61806;SDS011;47726;52.766;6.606;2022-07-31T01:25:09;5.72;;;4.10;;
61806;SDS011;47726;52.766;6.606;2022-07-31T01:30:17;6.90;;;4.28;;
61806;SDS011;47726;52.766;6.606;2022-07-31T01:32:46;6.18;;;4.20;;
61806;SDS011;47726;52.766;6.606;2022-07-31T01:35:29;7.18;;;4.40;;
61806;SDS011;47726;52.766;6.606;2022-07-31T01:38:02;8.65;;;4.50;;
61806;SDS011;47726;52.766;6.606;2022-07-31T01:40:49;6.20;;;4.47;;
61806;SDS011;47726;52.766;6.606;2022-07-31T01:43:22;7.03;;;4.70;;
61806;SDS011;47726;52.766;6.606;2022-07-31T01:45:53;6.40;;;4.78;;
61806;SDS011;47726;52.766;6.606;2022-07-31T01:48:22;7.95;;;4.90;;
61806;SDS011;47726;52.766;6.606;2022-07-31T01:50:51;9.23;;;4.85;;
61806;SDS011;47726;52.766;6.606;2022-07-31T01:53:19;6.45;;;4.50;;
61806;SDS011;47726;52.766;6.606;2022-07-31T01:55:46;8.27;;;5.07;;
61806;SDS011;47726;52.766;6.606;2022-07-31T01:58:14;6.90;;;4.72;;
61806;SDS011;47726;52.766;6.606;2022-07-31T02:00:42;7.63;;;5.20;;
61806;SDS011;47726;52.766;6.606;2022-07-31T02:03:09;8.40;;;5.03;;
61806;SDS011;47726;52.766;6.606;2022-07-31T02:05:37;6.38;;;4.90;;
61806;SDS011;47726;52.766;6.606;2022-07-31T02:08:04;8.68;;;5.32;;
61806;SDS011;47726;52.766;6.606;2022-07-31T02:10:31;9.20;;;5.07;;
61806;SDS011;47726;52.766;6.606;2022-07-31T02:12:57;7.63;;;5.60;;
61806;SDS011;47726;52.766;6.606;2022-07-31T02:15:26;8.77;;;5.45;;
61806;SDS011;47726;52.766;6.606;2022-07-31T02:17:53;7.80;;;5.70;;
61806;SDS011;47726;52.766;6.606;2022-07-31T02:20:19;11.82;;;5.55;;
61806;SDS011;47726;52.766;6.606;2022-07-31T02:22:46;8.43;;;5.60;;
61806;SDS011;47726;52.766;6.606;2022-07-31T02:25:12;7.97;;;5.82;;
61806;SDS011;47726;52.766;6.606;2022-07-31T02:27:37;6.72;;;5.82;;
61806;SDS011;47726;52.766;6.606;2022-07-31T02:30:06;9.02;;;5.97;;
61806;SDS011;47726;52.766;6.606;2022-07-31T02:32:32;7.25;;;5.70;;
61806;SDS011;47726;52.766;6.606;2022-07-31T02:34:59;7.18;;;5.90;;
61806;SDS011;47726;52.766;6.606;2022-07-31T02:37:26;9.50;;;5.70;;
61806;SDS011;47726;52.766;6.606;2022-07-31T02:39:53;7.43;;;5.70;;
61806;SDS011;47726;52.766;6.606;2022-07-31T02:42:19;10.25;;;5.35;;
61806;SDS011;47726;52.766;6.606;2022-07-31T02:44:46;8.00;;;5.47;;
61806;SDS011;47726;52.766;6.606;2022-07-31T02:47:13;8.18;;;5.60;;
61806;SDS011;47726;52.766;6.606;2022-07-31T02:49:40;10.77;;;5.82;;
61806;SDS011;47726;52.766;6.606;2022-07-31T02:52:07;8.93;;;5.72;;
61806;SDS011;47726;52.766;6.606;2022-07-31T02:54:33;7.63;;;5.63;;
61806;SDS011;47726;52.766;6.606;2022-07-31T02:57:03;8.77;;;5.40;;
61806;SDS011;47726;52.766;6.606;2022-07-31T02:59:29;8.43;;;5.40;;
61806;SDS011;47726;52.766;6.606;2022-07-31T03:01:56;6.38;;;5.07;;
61806;SDS011;47726;52.766;6.606;2022-07-31T03:04:22;7.82;;;5.20;;
61806;SDS011;47726;52.766;6.606;2022-07-31T03:06:48;7.80;;;5.57;;
61806;SDS011;47726;52.766;6.606;2022-07-31T03:09:14;9.60;;;5.35;;
61806;SDS011;47726;52.766;6.606;2022-07-31T03:11:40;8.40;;;5.22;;
61806;SDS011;47726;52.766;6.606;2022-07-31T03:14:06;7.32;;;5.63;;
61806;SDS011;47726;52.766;6.606;2022-07-31T03:16:33;7.40;;;5.20;;
61806;SDS011;47726;52.766;6.606;2022-07-31T03:18:59;8.05;;;5.05;;
61806;SDS011;47726;52.766;6.606;2022-07-31T03:21:27;8.18;;;5.25;;
61806;SDS011;47726;52.766;6.606;2022-07-31T03:23:53;8.27;;;5.03;;
61806;SDS011;47726;52.766;6.606;2022-07-31T03:26:19;8.77;;;5.28;;
61806;SDS011;47726;52.766;6.606;2022-07-31T03:28:45;6.82;;;4.90;;
61806;SDS011;47726;52.766;6.606;2022-07-31T03:31:11;6.93;;;5.03;;
61806;SDS011;47726;52.766;6.606;2022-07-31T03:33:37;7.55;;;5.28;;
61806;SDS011;47726;52.766;6.606;2022-07-31T03:36:02;7.10;;;4.68;;
61806;SDS011;47726;52.766;6.606;2022-07-31T03:38:28;8.07;;;5.00;;
61806;SDS011;47726;52.766;6.606;2022-07-31T03:40:54;6.82;;;4.68;;
61806;SDS011;47726;52.766;6.606;2022-07-31T03:43:19;6.47;;;4.65;;
61806;SDS011;47726;52.766;6.606;2022-07-31T03:45:46;7.18;;;5.05;;
61806;SDS011;47726;52.766;6.606;2022-07-31T03:48:14;6.93;;;4.80;;
61806;SDS011;47726;52.766;6.606;2022-07-31T03:50:40;9.35;;;5.10;;
61806;SDS011;47726;52.766;6.606;2022-07-31T03:53:07;7.57;;;4.70;;
61806;SDS011;47726;52.766;6.606;2022-07-31T03:55:33;6.00;;;4.72;;
61806;SDS011;47726;52.766;6.606;2022-07-31T03:58:01;6.50;;;4.53;;
61806;SDS011;47726;52.766;6.606;2022-07-31T04:00:28;8.20;;;5.10;;
61806;SDS011;47726;52.766;6.606;2022-07-31T04:02:54;6.28;;;4.72;;
61806;SDS011;47726;52.766;6.606;2022-07-31T04:05:21;7.60;;;5.25;;
61806;SDS011;47726;52.766;6.606;2022-07-31T04:07:47;8.57;;;5.38;;
61806;SDS011;47726;52.766;6.606;2022-07-31T04:10:13;7.80;;;5.00;;
61806;SDS011;47726;52.766;6.606;2022-07-31T04:12:38;7.95;;;5.43;;
61806;SDS011;47726;52.766;6.606;2022-07-31T04:15:04;9.55;;;5.70;;
61806;SDS011;47726;52.766;6.606;2022-07-31T04:17:30;10.20;;;5.10;;
61806;SDS011;47726;52.766;6.606;2022-07-31T04:19:56;5.18;;;4.65;;
61806;SDS011;47726;52.766;6.606;2022-07-31T04:22:21;9.05;;;5.00;;
61806;SDS011;47726;52.766;6.606;2022-07-31T04:24:47;7.90;;;4.80;;
61806;SDS011;47726;52.766;6.606;2022-07-31T04:27:14;7.97;;;5.07;;
61806;SDS011;47726;52.766;6.606;2022-07-31T04:29:43;5.65;;;4.60;;
61806;SDS011;47726;52.766;6.606;2022-07-31T04:32:10;6.63;;;4.70;;
61806;SDS011;47726;52.766;6.606;2022-07-31T04:34:36;6.30;;;4.60;;
61806;SDS011;47726;52.766;6.606;2022-07-31T04:37:02;6.75;;;4.80;;
61806;SDS011;47726;52.766;6.606;2022-07-31T04:39:27;6.35;;;4.80;;
61806;SDS011;47726;52.766;6.606;2022-07-31T04:41:53;8.10;;;4.53;;
61806;SDS011;47726;52.766;6.606;2022-07-31T04:44:20;5.70;;;4.80;;
61806;SDS011;47726;52.766;6.606;2022-07-31T04:46:46;7.32;;;5.07;;
61806;SDS011;47726;52.766;6.606;2022-07-31T04:49:11;8.15;;;4.53;;
61806;SDS011;47726;52.766;6.606;2022-07-31T04:51:39;6.85;;;4.85;;
61806;SDS011;47726;52.766;6.606;2022-07-31T04:54:05;5.80;;;4.78;;
61806;SDS011;47726;52.766;6.606;2022-07-31T04:56:31;7.05;;;4.85;;
61806;SDS011;47726;52.766;6.606;2022-07-31T04:59:09;7.10;;;4.70;;
61806;SDS011;47726;52.766;6.606;2022-07-31T05:01:36;7.68;;;4.90;;
61806;SDS011;47726;52.766;6.606;2022-07-31T05:04:02;8.07;;;4.95;;
61806;SDS011;47726;52.766;6.606;2022-07-31T05:06:34;6.95;;;4.70;;
61806;SDS011;47726;52.766;6.606;2022-07-31T05:09:02;8.35;;;5.18;;
61806;SDS011;47726;52.766;6.606;2022-07-31T05:11:29;8.50;;;5.43;;
61806;SDS011;47726;52.766;6.606;2022-07-31T05:13:56;8.68;;;5.30;;
61806;SDS011;47726;52.766;6.606;2022-07-31T05:16:23;10.40;;;5.53;;
61806;SDS011;47726;52.766;6.606;2022-07-31T05:18:50;8.57;;;5.38;;
61806;SDS011;47726;52.766;6.606;2022-07-31T05:21:16;7.32;;;5.30;;
61806;SDS011;47726;52.766;6.606;2022-07-31T05:23:43;8.50;;;4.97;;
61806;SDS011;47726;52.766;6.606;2022-07-31T05:26:10;8.82;;;5.07;;
61806;SDS011;47726;52.766;6.606;2022-07-31T05:28:36;7.13;;;5.57;;
61806;SDS011;47726;52.766;6.606;2022-07-31T05:31:03;6.65;;;4.93;;
61806;SDS011;47726;52.766;6.606;2022-07-31T05:33:29;7.30;;;5.05;;
61806;SDS011;47726;52.766;6.606;2022-07-31T05:35:55;6.07;;;5.40;;
61806;SDS011;47726;52.766;6.606;2022-07-31T05:38:21;8.90;;;5.38;;
61806;SDS011;47726;52.766;6.606;2022-07-31T05:40:47;7.18;;;5.25;;
61806;SDS011;47726;52.766;6.606;2022-07-31T05:43:12;6.60;;;5.18;;
61806;SDS011;47726;52.766;6.606;2022-07-31T05:45:38;9.80;;;5.93;;
61806;SDS011;47726;52.766;6.606;2022-07-31T05:48:04;8.60;;;5.70;;
61806;SDS011;47726;52.766;6.606;2022-07-31T05:50:29;11.95;;;5.90;;
61806;SDS011;47726;52.766;6.606;2022-07-31T05:52:55;8.75;;;5.70;;
61806;SDS011;47726;52.766;6.606;2022-07-31T05:55:21;8.18;;;5.80;;
61806;SDS011;47726;52.766;6.606;2022-07-31T05:57:47;8.73;;;5.63;;
61806;SDS011;47726;52.766;6.606;2022-07-31T06:00:13;8.48;;;5.80;;
61806;SDS011;47726;52.766;6.606;2022-07-31T06:02:40;8.80;;;5.93;;
61806;SDS011;47726;52.766;6.606;2022-07-31T06:05:06;9.02;;;6.13;;
61806;SDS011;47726;52.766;6.606;2022-07-31T06:07:32;6.88;;;5.90;;
61806;SDS011;47726;52.766;6.606;2022-07-31T06:09:58;6.70;;;5.50;;
61806;SDS011;47726;52.766;6.606;2022-07-31T06:12:23;9.10;;;5.72;;
61806;SDS011;47726;52.766;6.606;2022-07-31T06:14:49;8.65;;;5.78;;
61806;SDS011;47726;52.766;6.606;2022-07-31T06:17:14;9.25;;;5.82;;
61806;SDS011;47726;52.766;6.606;2022-07-31T06:19:40;8.13;;;6.03;;
61806;SDS011;47726;52.766;6.606;2022-07-31T06:22:05;8.30;;;5.93;;
61806;SDS011;47726;52.766;6.606;2022-07-31T06:24:31;10.38;;;5.90;;
61806;SDS011;47726;52.766;6.606;2022-07-31T06:26:57;10.05;;;5.82;;
61806;SDS011;47726;52.766;6.606;2022-07-31T06:29:26;7.63;;;5.80;;
61806;SDS011;47726;52.766;6.606;2022-07-31T06:31:53;10.20;;;6.05;;
61806;SDS011;47726;52.766;6.606;2022-07-31T06:34:19;7.95;;;5.85;;
61806;SDS011;47726;52.766;6.606;2022-07-31T06:36:44;10.68;;;5.97;;
61806;SDS011;47726;52.766;6.606;2022-07-31T06:39:10;9.57;;;6.38;;
61806;SDS011;47726;52.766;6.606;2022-07-31T06:41:36;9.50;;;6.10;;
61806;SDS011;47726;52.766;6.606;2022-07-31T06:44:18;7.25;;;6.13;;
61806;SDS011;47726;52.766;6.606;2022-07-31T06:46:44;12.98;;;6.63;;
61806;SDS011;47726;52.766;6.606;2022-07-31T06:49:11;9.80;;;6.55;;
61806;SDS011;47726;52.766;6.606;2022-07-31T06:51:37;9.35;;;5.90;;
61806;SDS011;47726;52.766;6.606;2022-07-31T06:54:04;8.18;;;6.28;;
61806;SDS011;47726;52.766;6.606;2022-07-31T06:56:31;11.90;;;6.22;;
61806;SDS011;47726;52.766;6.606;2022-07-31T06:59:00;8.32;;;6.13;;
61806;SDS011;47726;52.766;6.606;2022-07-31T07:01:27;7.10;;;5.13;;
61806;SDS011;47726;52.766;6.606;2022-07-31T07:03:52;8.63;;;6.22;;
61806;SDS011;47726;52.766;6.606;2022-07-31T07:06:18;11.50;;;6.65;;
61806;SDS011;47726;52.766;6.606;2022-07-31T07:08:44;7.78;;;6.20;;
61806;SDS011;47726;52.766;6.606;2022-07-31T07:11:10;8.27;;;6.15;;
61806;SDS011;47726;52.766;6.606;2022-07-31T07:13:36;10.35;;;7.13;;
61806;SDS011;47726;52.766;6.606;2022-07-31T07:16:01;10.35;;;7.10;;
61806;SDS011;47726;52.766;6.606;2022-07-31T07:18:27;10.70;;;7.70;;
61806;SDS011;47726;52.766;6.606;2022-07-31T07:20:52;12.98;;;7.82;;
61806;SDS011;47726;52.766;6.606;2022-07-31T07:23:18;9.23;;;7.03;;
61806;SDS011;47726;52.766;6.606;2022-07-31T07:25:45;10.13;;;7.50;;
61806;SDS011;47726;52.766;6.606;2022-07-31T07:28:11;10.40;;;6.90;;
61806;SDS011;47726;52.766;6.606;2022-07-31T07:30:37;9.07;;;6.88;;
61806;SDS011;47726;52.766;6.606;2022-07-31T07:33:03;8.82;;;6.88;;
61806;SDS011;47726;52.766;6.606;2022-07-31T07:35:29;10.57;;;7.28;;
61806;SDS011;47726;52.766;6.606;2022-07-31T07:37:55;10.55;;;7.65;;
61806;SDS011;47726;52.766;6.606;2022-07-31T07:40:22;11.38;;;7.60;;
61806;SDS011;47726;52.766;6.606;2022-07-31T07:42:48;11.93;;;7.82;;
61806;SDS011;47726;52.766;6.606;2022-07-31T07:45:14;9.95;;;6.70;;
61806;SDS011;47726;52.766;6.606;2022-07-31T07:47:39;8.70;;;7.47;;
61806;SDS011;47726;52.766;6.606;2022-07-31T07:50:06;10.68;;;7.47;;
61806;SDS011;47726;52.766;6.606;2022-07-31T07:52:33;11.18;;;7.95;;
61806;SDS011;47726;52.766;6.606;2022-07-31T07:54:59;11.90;;;8.52;;
61806;SDS011;47726;52.766;6.606;2022-07-31T07:57:25;14.70;;;9.02;;
61806;SDS011;47726;52.766;6.606;2022-07-31T07:59:51;10.60;;;8.02;;
61806;SDS011;47726;52.766;6.606;2022-07-31T08:02:17;10.85;;;8.60;;
61806;SDS011;47726;52.766;6.606;2022-07-31T08:04:43;11.13;;;8.18;;
61806;SDS011;47726;52.766;6.606;2022-07-31T08:07:08;12.25;;;9.13;;
61806;SDS011;47726;52.766;6.606;2022-07-31T08:09:35;9.95;;;7.65;;
61806;SDS011;47726;52.766;6.606;2022-07-31T08:12:01;12.02;;;8.48;;
61806;SDS011;47726;52.766;6.606;2022-07-31T08:14:28;11.75;;;8.77;;
61806;SDS011;47726;52.766;6.606;2022-07-31T08:16:53;13.38;;;9.00;;
61806;SDS011;47726;52.766;6.606;2022-07-31T08:19:20;12.30;;;8.52;;
61806;SDS011;47726;52.766;6.606;2022-07-31T08:21:46;11.18;;;8.82;;
61806;SDS011;47726;52.766;6.606;2022-07-31T08:24:11;12.60;;;8.57;;
61806;SDS011;47726;52.766;6.606;2022-07-31T08:26:37;10.80;;;8.65;;
61806;SDS011;47726;52.766;6.606;2022-07-31T08:29:22;12.95;;;8.88;;
61806;SDS011;47726;52.766;6.606;2022-07-31T08:31:49;10.85;;;8.18;;
61806;SDS011;47726;52.766;6.606;2022-07-31T08:34:16;10.80;;;8.93;;
61806;SDS011;47726;52.766;6.606;2022-07-31T08:36:42;13.93;;;9.10;;
61806;SDS011;47726;52.766;6.606;2022-07-31T08:39:08;13.18;;;8.32;;
61806;SDS011;47726;52.766;6.606;2022-07-31T08:41:33;10.88;;;7.82;;
61806;SDS011;47726;52.766;6.606;2022-07-31T08:44:06;11.77;;;9.00;;
61806;SDS011;47726;52.766;6.606;2022-07-31T08:46:36;12.95;;;8.88;;
61806;SDS011;47726;52.766;6.606;2022-07-31T08:49:03;10.38;;;8.27;;
61806;SDS011;47726;52.766;6.606;2022-07-31T08:51:33;10.20;;;8.52;;
61806;SDS011;47726;52.766;6.606;2022-07-31T08:54:05;11.60;;;8.50;;
61806;SDS011;47726;52.766;6.606;2022-07-31T08:56:32;10.55;;;8.43;;
61806;SDS011;47726;52.766;6.606;2022-07-31T08:58:59;10.40;;;8.60;;
61806;SDS011;47726;52.766;6.606;2022-07-31T09:01:26;11.52;;;8.60;;
61806;SDS011;47726;52.766;6.606;2022-07-31T09:03:52;10.88;;;8.23;;
61806;SDS011;47726;52.766;6.606;2022-07-31T09:06:18;10.70;;;8.48;;
61806;SDS011;47726;52.766;6.606;2022-07-31T09:08:44;10.43;;;9.02;;
61806;SDS011;47726;52.766;6.606;2022-07-31T09:11:11;11.65;;;8.95;;
61806;SDS011;47726;52.766;6.606;2022-07-31T09:13:38;10.55;;;8.38;;
61806;SDS011;47726;52.766;6.606;2022-07-31T09:16:06;12.00;;;9.13;;
61806;SDS011;47726;52.766;6.606;2022-07-31T09:18:32;11.45;;;8.80;;
61806;SDS011;47726;52.766;6.606;2022-07-31T09:21:03;12.32;;;8.60;;
61806;SDS011;47726;52.766;6.606;2022-07-31T09:23:30;11.43;;;9.13;;
61806;SDS011;47726;52.766;6.606;2022-07-31T09:28:36;10.23;;;8.48;;
61806;SDS011;47726;52.766;6.606;2022-07-31T09:31:10;10.80;;;8.25;;
61806;SDS011;47726;52.766;6.606;2022-07-31T09:33:36;13.30;;;8.95;;
61806;SDS011;47726;52.766;6.606;2022-07-31T09:36:04;10.98;;;9.05;;
61806;SDS011;47726;52.766;6.606;2022-07-31T09:38:31;11.57;;;8.43;;
61806;SDS011;47726;52.766;6.606;2022-07-31T09:41:10;12.02;;;9.13;;
61806;SDS011;47726;52.766;6.606;2022-07-31T09:43:40;11.00;;;8.63;;
61806;SDS011;47726;52.766;6.606;2022-07-31T09:46:06;13.55;;;9.25;;
61806;SDS011;47726;52.766;6.606;2022-07-31T09:48:33;12.45;;;9.85;;
61806;SDS011;47726;52.766;6.606;2022-07-31T09:53:37;11.18;;;9.50;;
61806;SDS011;47726;52.766;6.606;2022-07-31T09:56:07;13.57;;;9.52;;
61806;SDS011;47726;52.766;6.606;2022-07-31T09:58:36;12.50;;;9.60;;
61806;SDS011;47726;52.766;6.606;2022-07-31T10:01:03;12.57;;;9.90;;
61806;SDS011;47726;52.766;6.606;2022-07-31T10:03:30;11.05;;;9.38;;
61806;SDS011;47726;52.766;6.606;2022-07-31T10:05:57;11.73;;;9.15;;
61806;SDS011;47726;52.766;6.606;2022-07-31T10:08:23;12.05;;;9.90;;
61806;SDS011;47726;52.766;6.606;2022-07-31T10:10:50;11.98;;;9.63;;
61806;SDS011;47726;52.766;6.606;2022-07-31T10:13:17;12.65;;;9.68;;
61806;SDS011;47726;52.766;6.606;2022-07-31T10:15:45;12.20;;;10.07;;
61806;SDS011;47726;52.766;6.606;2022-07-31T10:18:14;11.65;;;10.02;;
61806;SDS011;47726;52.766;6.606;2022-07-31T10:20:41;11.52;;;9.82;;
61806;SDS011;47726;52.766;6.606;2022-07-31T10:23:16;12.57;;;10.65;;
61806;SDS011;47726;52.766;6.606;2022-07-31T10:25:47;12.63;;;10.18;;
61806;SDS011;47726;52.766;6.606;2022-07-31T10:28:15;13.07;;;10.18;;
61806;SDS011;47726;52.766;6.606;2022-07-31T10:30:42;13.40;;;11.00;;
61806;SDS011;47726;52.766;6.606;2022-07-31T10:33:09;13.60;;;10.63;;
61806;SDS011;47726;52.766;6.606;2022-07-31T10:35:38;14.90;;;10.73;;
61806;SDS011;47726;52.766;6.606;2022-07-31T10:41:07;13.23;;;10.80;;
61806;SDS011;47726;52.766;6.606;2022-07-31T10:44:08;13.68;;;10.43;;
61806;SDS011;47726;52.766;6.606;2022-07-31T10:46:37;16.65;;;10.65;;
61806;SDS011;47726;52.766;6.606;2022-07-31T10:49:03;13.45;;;10.57;;
61806;SDS011;47726;52.766;6.606;2022-07-31T10:51:29;13.07;;;11.20;;
61806;SDS011;47726;52.766;6.606;2022-07-31T10:53:59;16.13;;;10.80;;
61806;SDS011;47726;52.766;6.606;2022-07-31T10:56:39;13.48;;;10.88;;
61806;SDS011;47726;52.766;6.606;2022-07-31T10:59:09;13.40;;;10.95;;
61806;SDS011;47726;52.766;6.606;2022-07-31T11:01:48;12.27;;;10.82;;
61806;SDS011;47726;52.766;6.606;2022-07-31T11:04:24;15.25;;;10.80;;
61806;SDS011;47726;52.766;6.606;2022-07-31T11:06:51;12.48;;;10.82;;
61806;SDS011;47726;52.766;6.606;2022-07-31T11:09:21;12.48;;;10.32;;
61806;SDS011;47726;52.766;6.606;2022-07-31T11:11:47;13.55;;;10.27;;
61806;SDS011;47726;52.766;6.606;2022-07-31T11:14:13;14.38;;;10.73;;
61806;SDS011;47726;52.766;6.606;2022-07-31T11:16:51;14.07;;;11.57;;
61806;SDS011;47726;52.766;6.606;2022-07-31T11:19:18;14.23;;;10.60;;
61806;SDS011;47726;52.766;6.606;2022-07-31T11:21:44;13.50;;;10.98;;
61806;SDS011;47726;52.766;6.606;2022-07-31T11:24:16;14.73;;;11.68;;
61806;SDS011;47726;52.766;6.606;2022-07-31T11:29:29;15.45;;;12.85;;
61806;SDS011;47726;52.766;6.606;2022-07-31T11:32:11;15.00;;;12.00;;
61806;SDS011;47726;52.766;6.606;2022-07-31T11:34:50;15.65;;;12.35;;
61806;SDS011;47726;52.766;6.606;2022-07-31T11:37:30;15.75;;;13.05;;
61806;SDS011;47726;52.766;6.606;2022-07-31T11:39:56;15.35;;;13.70;;
61806;SDS011;47726;52.766;6.606;2022-07-31T11:42:23;18.23;;;14.05;;
61806;SDS011;47726;52.766;6.606;2022-07-31T11:44:57;15.65;;;13.30;;
61806;SDS011;47726;52.766;6.606;2022-07-31T11:47:36;17.42;;;14.00;;
61806;SDS011;47726;52.766;6.606;2022-07-31T11:50:06;20.52;;;16.27;;
61806;SDS011;47726;52.766;6.606;2022-07-31T11:52:34;16.63;;;13.52;;
61806;SDS011;47726;52.766;6.606;2022-07-31T11:55:06;18.20;;;14.55;;
61806;SDS011;47726;52.766;6.606;2022-07-31T11:57:39;17.58;;;14.25;;
61806;SDS011;47726;52.766;6.606;2022-07-31T12:00:07;17.40;;;15.27;;
61806;SDS011;47726;52.766;6.606;2022-07-31T12:02:38;19.67;;;15.80;;
61806;SDS011;47726;52.766;6.606;2022-07-31T12:05:04;16.67;;;14.82;;
61806;SDS011;47726;52.766;6.606;2022-07-31T12:07:31;16.52;;;14.40;;
61806;SDS011;47726;52.766;6.606;2022-07-31T12:09:56;19.52;;;16.95;;
61806;SDS011;47726;52.766;6.606;2022-07-31T12:12:23;19.60;;;17.55;;
61806;SDS011;47726;52.766;6.606;2022-07-31T12:14:49;19.42;;;17.27;;
61806;SDS011;47726;52.766;6.606;2022-07-31T12:17:18;19.17;;;16.73;;
61806;SDS011;47726;52.766;6.606;2022-07-31T12:19:45;19.45;;;16.42;;
61806;SDS011;47726;52.766;6.606;2022-07-31T12:22:15;20.83;;;17.95;;
61806;SDS011;47726;52.766;6.606;2022-07-31T12:24:42;19.70;;;16.92;;
61806;SDS011;47726;52.766;6.606;2022-07-31T12:27:12;22.88;;;19.98;;
61806;SDS011;47726;52.766;6.606;2022-07-31T12:29:42;22.10;;;19.73;;
61806;SDS011;47726;52.766;6.606;2022-07-31T12:32:08;20.33;;;16.88;;
61806;SDS011;47726;52.766;6.606;2022-07-31T12:34:35;22.67;;;18.73;;
61806;SDS011;47726;52.766;6.606;2022-07-31T12:39:37;22.05;;;18.65;;
61806;SDS011;47726;52.766;6.606;2022-07-31T12:44:49;22.58;;;19.45;;
61806;SDS011;47726;52.766;6.606;2022-07-31T12:47:22;23.23;;;19.98;;
61806;SDS011;47726;52.766;6.606;2022-07-31T12:49:49;21.63;;;18.45;;
61806;SDS011;47726;52.766;6.606;2022-07-31T12:52:15;20.40;;;18.25;;
61806;SDS011;47726;52.766;6.606;2022-07-31T12:54:41;21.20;;;18.90;;
61806;SDS011;47726;52.766;6.606;2022-07-31T12:57:07;22.25;;;19.85;;
61806;SDS011;47726;52.766;6.606;2022-07-31T12:59:32;20.35;;;18.15;;
61806;SDS011;47726;52.766;6.606;2022-07-31T13:01:58;21.33;;;19.00;;
61806;SDS011;47726;52.766;6.606;2022-07-31T13:04:24;22.88;;;20.13;;
61806;SDS011;47726;52.766;6.606;2022-07-31T13:06:49;22.30;;;19.92;;
61806;SDS011;47726;52.766;6.606;2022-07-31T13:09:16;23.98;;;21.48;;
61806;SDS011;47726;52.766;6.606;2022-07-31T13:11:42;21.98;;;19.65;;
61806;SDS011;47726;52.766;6.606;2022-07-31T13:14:08;21.15;;;18.90;;
61806;SDS011;47726;52.766;6.606;2022-07-31T13:16:34;23.27;;;20.80;;
61806;SDS011;47726;52.766;6.606;2022-07-31T13:19:00;24.17;;;21.27;;
61806;SDS011;47726;52.766;6.606;2022-07-31T13:21:25;22.83;;;20.35;;
61806;SDS011;47726;52.766;6.606;2022-07-31T13:23:51;21.83;;;18.27;;
61806;SDS011;47726;52.766;6.606;2022-07-31T13:26:17;22.30;;;19.77;;
61806;SDS011;47726;52.766;6.606;2022-07-31T13:28:46;22.38;;;19.98;;
61806;SDS011;47726;52.766;6.606;2022-07-31T13:31:12;22.17;;;18.83;;
61806;SDS011;47726;52.766;6.606;2022-07-31T13:33:37;21.35;;;18.33;;
61806;SDS011;47726;52.766;6.606;2022-07-31T13:36:03;21.67;;;19.38;;
61806;SDS011;47726;52.766;6.606;2022-07-31T13:38:30;22.17;;;19.77;;
61806;SDS011;47726;52.766;6.606;2022-07-31T13:40:56;22.08;;;19.70;;
61806;SDS011;47726;52.766;6.606;2022-07-31T13:43:40;22.42;;;20.02;;
61806;SDS011;47726;52.766;6.606;2022-07-31T13:46:05;21.27;;;18.95;;
61806;SDS011;47726;52.766;6.606;2022-07-31T13:48:31;20.92;;;18.60;;
61806;SDS011;47726;52.766;6.606;2022-07-31T13:50:57;19.77;;;17.67;;
61806;SDS011;47726;52.766;6.606;2022-07-31T13:53:23;15.18;;;13.57;;
61806;SDS011;47726;52.766;6.606;2022-07-31T13:55:49;15.38;;;13.77;;
61806;SDS011;47726;52.766;6.606;2022-07-31T13:58:14;16.00;;;14.30;;
61806;SDS011;47726;52.766;6.606;2022-07-31T14:00:40;31.08;;;27.80;;
61806;SDS011;47726;52.766;6.606;2022-07-31T14:03:05;32.70;;;29.35;;
61806;SDS011;47726;52.766;6.606;2022-07-31T14:05:31;16.67;;;14.63;;
61806;SDS011;47726;52.766;6.606;2022-07-31T14:07:57;15.02;;;13.20;;
61806;SDS011;47726;52.766;6.606;2022-07-31T14:10:24;13.70;;;12.20;;
61806;SDS011;47726;52.766;6.606;2022-07-31T14:12:49;11.52;;;10.32;;
61806;SDS011;47726;52.766;6.606;2022-07-31T14:15:16;11.13;;;8.90;;
61806;SDS011;47726;52.766;6.606;2022-07-31T14:17:42;11.13;;;9.48;;
61806;SDS011;47726;52.766;6.606;2022-07-31T14:20:08;9.82;;;8.82;;
61806;SDS011;47726;52.766;6.606;2022-07-31T14:22:34;8.45;;;7.45;;
61806;SDS011;47726;52.766;6.606;2022-07-31T14:24:59;10.18;;;7.80;;
61806;SDS011;47726;52.766;6.606;2022-07-31T14:27:25;9.43;;;7.63;;
61806;SDS011;47726;52.766;6.606;2022-07-31T14:29:51;9.88;;;8.00;;
61806;SDS011;47726;52.766;6.606;2022-07-31T14:32:16;9.27;;;8.07;;
61806;SDS011;47726;52.766;6.606;2022-07-31T14:34:43;10.32;;;7.78;;
61806;SDS011;47726;52.766;6.606;2022-07-31T14:37:09;10.38;;;8.05;;
61806;SDS011;47726;52.766;6.606;2022-07-31T14:39:34;11.35;;;8.85;;
61806;SDS011;47726;52.766;6.606;2022-07-31T14:42:00;10.10;;;8.35;;
61806;SDS011;47726;52.766;6.606;2022-07-31T14:44:25;10.20;;;9.02;;
61806;SDS011;47726;52.766;6.606;2022-07-31T14:46:51;10.73;;;8.60;;
61806;SDS011;47726;52.766;6.606;2022-07-31T14:49:17;11.65;;;8.50;;
61806;SDS011;47726;52.766;6.606;2022-07-31T14:51:42;10.48;;;8.52;;
61806;SDS011;47726;52.766;6.606;2022-07-31T14:54:08;10.70;;;8.73;;
61806;SDS011;47726;52.766;6.606;2022-07-31T14:56:33;8.95;;;7.53;;
61806;SDS011;47726;52.766;6.606;2022-07-31T14:58:59;10.70;;;7.97;;
61806;SDS011;47726;52.766;6.606;2022-07-31T15:01:24;10.55;;;8.10;;